Погода Уруасуна неделю

Гояс, Бразилия

19 - 25 июня
  • 19июня
    Сегодня
    +18°
    +32°
    Ясно и безоблачно
    ВремяПогодаТемператураВлажностьДавлениеВетер, м/сВероятность осадков
    00:00Ясно и безоблачно+20°C56 %714 мм1.9 м/с4 %
    03:00Ясно и безоблачно+17°C64 %714 мм1.8 м/с4 %
    06:00Ясно и безоблачно+17°C65 %715 мм1.8 м/с4 %
    09:00Ясно и безоблачно+23°C50 %717 мм1.9 м/с4 %
    12:00Ясно и безоблачно+30°C38 %717 мм2.5 м/с4 %
    15:00Ясно и безоблачно+32°C33 %715 мм1.8 м/с4 %
    18:00Ясно и безоблачно+28°C41 %714 мм2.1 м/с4 %
    21:00Ясно и безоблачно+22°C55 %715 мм1.9 м/с5 %
  • 20июня
    Четверг
    +18°
    +33°
    Облачно с прояснениями
    ВремяПогодаТемператураВлажностьДавлениеВетер, м/сВероятность осадков
    00:00Ясно и безоблачно+21°C57 %715 мм1.9 м/с5 %
    03:00Ясно и безоблачно+18°C64 %714 мм2.0 м/с5 %
    06:00Ясно и безоблачно+18°C70 %714 мм2.1 м/с5 %
    09:00Ясно и безоблачно+24°C54 %717 мм1.9 м/с5 %
    12:00Ясно и безоблачно+30°C34 %716 мм3.2 м/с5 %
    15:00Облачно с прояснениями+32°C29 %715 мм1.5 м/с5 %
    18:00Практически безоблачно+28°C38 %714 мм1.4 м/с5 %
    21:00Небольшая облачность+24°C47 %715 мм1.8 м/с5 %
  • 21июня
    Пятница
    +17°
    +33°
    Практически безоблачно
    ВремяПогодаТемператураВлажностьДавлениеВетер, м/сВероятность осадков
    00:00Ясно и безоблачно+21°C58 %715 мм2.6 м/с5 %
    03:00Ясно и безоблачно+19°C60 %714 мм2.3 м/с5 %
    06:00Ясно и безоблачно+18°C65 %714 мм2.0 м/с5 %
    09:00Ясно и безоблачно+25°C46 %717 мм3.0 м/с5 %
    12:00Ясно и безоблачно+30°C33 %716 мм3.9 м/с5 %
    15:00Практически безоблачно+32°C27 %714 мм1.4 м/с5 %
    18:00Практически безоблачно+28°C42 %714 мм1.4 м/с5 %
    21:00Ясно и безоблачно+24°C41 %715 мм1.4 м/с5 %
  • 22июня
    Суббота
    +18°
    +32°
    Облачно с прояснениями
    ВремяПогодаТемператураВлажностьДавлениеВетер, м/сВероятность осадков
    00:00Ясно и безоблачно+22°C49 %715 мм1.7 м/с5 %
    03:00Ясно и безоблачно+19°C59 %714 мм1.8 м/с5 %
    06:00Ясно и безоблачно+18°C64 %714 мм1.8 м/с5 %
    09:00Ясно и безоблачно+24°C48 %717 мм1.5 м/с5 %
    12:00Практически безоблачно+30°C31 %717 мм3.5 м/с5 %
    15:00Облачно с прояснениями+32°C27 %715 мм2.2 м/с5 %
    18:00Облачно с прояснениями+28°C38 %714 мм2.1 м/с5 %
    21:00Облачно с прояснениями+23°C48 %715 мм2.0 м/с5 %
  • 23июня
    Воскресенье
    +17°
    +33°
    Практически безоблачно
    ВремяПогодаТемператураВлажностьДавлениеВетер, м/сВероятность осадков
    00:00Практически безоблачно+20°C52 %714 мм2.1 м/с5 %
    03:00Небольшая облачность+19°C57 %714 мм1.0 м/с5 %
    06:00Небольшая облачность+18°C64 %714 мм1.1 м/с5 %
    09:00Ясно и безоблачно+24°C48 %717 мм1.3 м/с5 %
    12:00Ясно и безоблачно+31°C29 %716 мм1.9 м/с5 %
    15:00Практически безоблачно+33°C27 %714 мм1.2 м/с5 %
    18:00Ясно и безоблачно+28°C44 %714 мм1.6 м/с5 %
    21:00Ясно и безоблачно+24°C44 %715 мм1.2 м/с5 %
Мы используем cookies
Соглашаюсь